METAR Data
IDs: Format: Raw Decoded Include TAF

Data at: 0105 UTC 06 Dec 2019

K0A9 060055Z AUTO 00000KT 10SM CLR 01/M02 A3016 RMK AO2
K0A9 060035Z AUTO 00000KT 10SM CLR 01/M02 A3017 RMK AO2
K0A9 060015Z AUTO 00000KT 10SM CLR 01/M02 A3016 RMK AO2
K0A9 052355Z AUTO 00000KT 10SM CLR 02/M02 A3016 RMK AO2
K0A9 052335Z AUTO 00000KT 10SM CLR 03/M02 A3015 RMK AO2
K0A9 052315Z AUTO 00000KT 10SM CLR 03/M01 A3015 RMK AO2
K0A9 052255Z AUTO 06003KT 10SM CLR 04/M02 A3014 RMK AO2
K0A9 052230Z AUTO 00000KT 10SM CLR 04/M01 A3014 RMK AO2
K0A9 052215Z AUTO 32004KT 10SM CLR 05/M01 A3014 RMK AO2
K0A9 052155Z AUTO 00000KT 10SM CLR 09/M03 A3013 RMK AO2
K0A9 052135Z AUTO 28005KT 10SM CLR 11/M04 A3013 RMK AO2
K0A9 052115Z AUTO 28004KT 10SM CLR 11/M04 A3013 RMK AO2
K0A9 052055Z AUTO 26004KT 10SM CLR 12/M04 A3012 RMK AO2
K0A9 052035Z AUTO 29005G11KT 10SM CLR 11/M04 A3011 RMK AO2
K0A9 052015Z AUTO VRB06G12KT 10SM CLR 12/M04 A3011 RMK AO2
K0A9 051955Z AUTO VRB05G11KT 10SM CLR 12/M03 A3010 RMK AO2
K0A9 051935Z AUTO 24006G12KT 10SM CLR 11/M02 A3010 RMK AO2
K0A9 051915Z AUTO 23009KT 10SM CLR 11/M02 A3010 RMK AO2
K0A9 051855Z AUTO 23008G16KT 10SM CLR 11/M03 A3010 RMK AO2
K0A9 051835Z AUTO 24010G16KT 210V270 10SM CLR 11/M02 A3010 RMK AO2
K0A9 051815Z AUTO 23011KT 210V270 10SM CLR 11/M02 A3010 RMK AO2
K0A9 051755Z AUTO 28007G13KT 240V300 10SM CLR 11/M02 A3010 RMK AO2
K0A9 051735Z AUTO 28008G16KT 260V330 10SM CLR 10/M03 A3010 RMK AO2
K0A9 051715Z AUTO 30008G15KT 10SM CLR 10/M03 A3010 RMK AO2
K0A9 051655Z AUTO VRB06G13KT 10SM CLR 09/M02 A3011 RMK AO2
K0A9 051615Z AUTO VRB05G12KT 10SM CLR 08/M02 A3011 RMK AO2
K0A9 051555Z AUTO 00000KT 10SM CLR 08/M02 A3011 RMK AO2
K0A9 051535Z AUTO 25007G12KT 10SM CLR 08/M01 A3011 RMK AO2
K0A9 051515Z AUTO VRB06G13KT 210V310 10SM CLR 07/M01 A3011 RMK AO2
K0A9 051455Z AUTO VRB06G11KT 10SM CLR 07/M01 A3011 RMK AO2
K0A9 051435Z AUTO 24005KT 10SM CLR 06/M01 A3010 RMK AO2
K0A9 051415Z AUTO 00000KT 10SM CLR 06/M01 A3010 RMK AO2
K0A9 051355Z AUTO 00000KT 10SM CLR 04/M01 A3009 RMK AO2
K0A9 051335Z AUTO 00000KT 10SM CLR 02/M01 A3008 RMK AO2
K0A9 051315Z AUTO 00000KT 10SM CLR 01/M02 A3007 RMK AO2
K0A9 051255Z AUTO 00000KT 10SM CLR M01/M02 A3006 RMK AO2
K0A9 051235Z AUTO 32003KT 10SM CLR M01/M03 A3006 RMK AO2
K0A9 051215Z AUTO 00000KT 10SM CLR M00/M03 A3005 RMK AO2
K0A9 051155Z AUTO 26005KT 10SM CLR 01/M03 A3005 RMK AO2
K0A9 051135Z AUTO 26005KT 10SM CLR 01/M03 A3004 RMK AO2
K0A9 051115Z AUTO 26004KT 10SM CLR 01/M03 A3002 RMK AO2
K0A9 051055Z AUTO 26004KT 10SM CLR M00/M03 A3001 RMK AO2
K0A9 051035Z AUTO 26005KT 10SM CLR 00/M03 A3000 RMK AO2
K0A9 051015Z AUTO 26005KT 10SM CLR 00/M03 A2999 RMK AO2
K0A9 050955Z AUTO 00000KT 10SM CLR 02/M03 A2998 RMK AO2
K0A9 050935Z AUTO 25004KT 10SM CLR 01/M03 A2998 RMK AO2
K0A9 050915Z AUTO 26004KT 10SM CLR 01/M03 A2998 RMK AO2
K0A9 050855Z AUTO VRB03KT 10SM CLR 01/M03 A2998 RMK AO2
K0A9 050835Z AUTO 00000KT 10SM CLR 02/M03 A2997 RMK AO2
K0A9 050810Z AUTO 30003KT 10SM CLR 03/M03 A2997 RMK AO2
K0A9 050755Z AUTO VRB03KT 10SM CLR 03/M03 A2996 RMK AO2
K0A9 050735Z AUTO VRB04KT 10SM CLR 04/M03 A2996 RMK AO2
K0A9 050715Z AUTO 28003KT 10SM CLR 03/M03 A2995 RMK AO2
K0A9 050655Z AUTO 29003KT 10SM CLR 02/M03 A2994 RMK AO2
K0A9 050615Z AUTO 28004KT 10SM CLR 02/M03 A2993 RMK AO2
K0A9 050555Z AUTO VRB04KT 10SM CLR 03/M03 A2993 RMK AO2
K0A9 050535Z AUTO 29003KT 10SM CLR 04/M03 A2992 RMK AO2
K0A9 050515Z AUTO 3.66666704KT 10SM CLR 05/M03 A2992 RMK AO2
K0A9 050455Z AUTO 27004KT 10SM CLR 04/M03 A2991 RMK AO2
K0A9 050435Z AUTO 26006KT 10SM CLR 04/M03 A2991 RMK AO2
K0A9 050415Z AUTO VRB03KT 10SM CLR 05/M03 A2991 RMK AO2
K0A9 050355Z AUTO 25005KT 10SM CLR 06/M03 A2990 RMK AO2
K0A9 050335Z AUTO VRB04KT 10SM CLR 06/M03 A2990 RMK AO2
K0A9 050315Z AUTO 25005G12KT 10SM CLR 07/M03 A2989 RMK AO2
K0A9 050255Z AUTO 26007KT 10SM CLR 07/M03 A2989 RMK AO2
K0A9 050235Z AUTO 25006G12KT 10SM CLR 07/M03 A2988 RMK AO2
K0A9 050215Z AUTO 25007KT 10SM CLR 07/M03 A2987 RMK AO2
K0A9 050155Z AUTO 25008KT 10SM CLR 08/M03 A2986 RMK AO2
K0A9 050135Z AUTO 26009G15KT 10SM CLR 07/M02 A2985 RMK AO2
K0A9 050115Z AUTO 27010G16KT 10SM CLR 08/M02 A2985 RMK AO2
K0A9 050055Z AUTO 28009G15KT 10SM CLR 08/M02 A2984 RMK AO2
K0A9 050035Z AUTO 27006G13KT CLR 08/M02 A2983 RMK AO2
K0A9 050015Z AUTO 27006G12KT 10SM CLR 08/M01 A2982 RMK AO2
K0A9 042355Z AUTO 28006KT 10SM CLR 07/M01 A2982 RMK AO2
K0A9 042335Z AUTO 27007KT 10SM CLR 08/M01 A2981 RMK AO2
K0A9 042315Z AUTO 28006G12KT 10SM CLR 08/M01 A2981 RMK AO2
K0A9 042255Z AUTO 27008KT 10SM CLR 08/M02 A2980 RMK AO2
K0A9 042235Z AUTO 26009KT 10SM CLR 08/M02 A2979 RMK AO2
K0A9 042215Z AUTO 28007G13KT 10SM CLR 08/M02 A2979 RMK AO2
K0A9 042155Z AUTO 27010G18KT 230V290 10SM CLR 09/M02 A2979 RMK AO2
K0A9 042135Z AUTO 26011KT 10SM CLR 09/M02 A2978 RMK AO2
K0A9 042115Z AUTO 27013KT 10SM CLR 10/M03 A2978 RMK AO2
K0A9 042055Z AUTO 25014KT 10SM CLR 10/M03 A2977 RMK AO2
K0A9 042035Z AUTO 27009G16KT 10SM FEW055 10/M02 A2977 RMK AO2
K0A9 042015Z AUTO 26014G23KT 10SM FEW060 10/M03 A2976 RMK AO2
K0A9 041955Z AUTO 26013G20KT 210V300 10SM CLR 10/M02 A2976 RMK AO2
K0A9 041935Z AUTO 29012G20KT 250V330 10SM CLR 10/M02 A2976 RMK AO2
K0A9 041915Z AUTO 28008G21KT 250V310 10SM CLR 10/M02 A2975 RMK AO2
K0A9 041855Z AUTO 27007G14KT 220V300 10SM CLR 10/M02 A2976 RMK AO2
K0A9 041835Z AUTO 25015G23KT 10SM CLR 10/M02 A2976 RMK AO2
K0A9 041815Z AUTO 25011KT 230V300 10SM CLR 09/M02 A2977 RMK AO2
K0A9 041755Z AUTO 26008G17KT 210V310 10SM CLR 09/M01 A2978 RMK AO2
K0A9 041735Z AUTO 24012KT 10SM CLR 09/M01 A2978 RMK AO2
K0A9 041715Z AUTO 27008G14KT 10SM FEW036 09/M00 A2979 RMK AO2
K0A9 041655Z AUTO 25011KT 10SM FEW034 08/00 A2980 RMK AO2
K0A9 041635Z AUTO 25011KT 10SM FEW034 08/00 A2980 RMK AO2
K0A9 041615Z AUTO 25007G16KT 10SM CLR 07/00 A2982 RMK AO2
K0A9 041555Z AUTO 27008G14KT 230V300 10SM CLR 07/M00 A2982 RMK AO2
K0A9 041535Z AUTO 28007G17KT 240V320 10SM CLR 06/M00 A2983 RMK AO2
K0A9 041515Z AUTO VRB05G11KT 10SM CLR 05/M01 A2983 RMK AO2
K0A9 041455Z AUTO VRB05KT 10SM FEW034 FEW050 05/M00 A2984 RMK AO2
K0A9 041435Z AUTO 26003KT 10SM BKN032 BKN050 03/00 A2984 RMK AO2
K0A9 041415Z AUTO 00000KT 9SM OVC032 00/M01 A2984 RMK AO2
K0A9 041355Z AUTO 00000KT 9SM OVC032 M01/M01 A2984 RMK AO2
K0A9 041335Z AUTO 00000KT 9SM OVC033 M01/M02 A2984 RMK AO2
K0A9 041315Z AUTO 00000KT 7SM SCT034 M02/M02 A2984 RMK AO2